sensor_id;sensor_type;location;lat;lon;timestamp;pressure;altitude;pressure_sealevel;temperature;humidity
72570;BME280;60594;50.204;8.844;2022-08-02T00:00:51;100187.09;;;19.78;69.37
72570;BME280;60594;50.204;8.844;2022-08-02T00:03:17;100192.88;;;19.75;69.98
72570;BME280;60594;50.204;8.844;2022-08-02T00:05:44;100187.28;;;19.76;70.04
72570;BME280;60594;50.204;8.844;2022-08-02T00:08:10;100190.06;;;19.68;69.91
72570;BME280;60594;50.204;8.844;2022-08-02T00:10:36;100185.66;;;19.67;69.96
72570;BME280;60594;50.204;8.844;2022-08-02T00:13:03;100185.28;;;19.70;70.02
72570;BME280;60594;50.204;8.844;2022-08-02T00:15:29;100185.59;;;19.75;69.48
72570;BME280;60594;50.204;8.844;2022-08-02T00:17:56;100183.91;;;19.74;69.61
72570;BME280;60594;50.204;8.844;2022-08-02T00:20:22;100179.34;;;19.75;70.30
72570;BME280;60594;50.204;8.844;2022-08-02T00:22:48;100181.09;;;19.68;70.21
72570;BME280;60594;50.204;8.844;2022-08-02T00:25:15;100172.31;;;19.66;70.76
72570;BME280;60594;50.204;8.844;2022-08-02T00:27:41;100177.72;;;19.43;70.86
72570;BME280;60594;50.204;8.844;2022-08-02T00:30:08;100178.84;;;19.26;71.53
72570;BME280;60594;50.204;8.844;2022-08-02T00:32:34;100180.50;;;19.35;71.50
72570;BME280;60594;50.204;8.844;2022-08-02T00:35:00;100182.59;;;19.48;71.28
72570;BME280;60594;50.204;8.844;2022-08-02T00:37:27;100179.75;;;19.41;71.34
72570;BME280;60594;50.204;8.844;2022-08-02T00:39:55;100181.56;;;19.49;70.99
72570;BME280;60594;50.204;8.844;2022-08-02T00:42:22;100178.03;;;19.48;70.82
72570;BME280;60594;50.204;8.844;2022-08-02T00:44:48;100177.72;;;19.43;70.84
72570;BME280;60594;50.204;8.844;2022-08-02T00:47:15;100193.28;;;19.41;70.72
72570;BME280;60594;50.204;8.844;2022-08-02T00:49:41;100177.97;;;19.34;70.93
72570;BME280;60594;50.204;8.844;2022-08-02T00:52:08;100180.16;;;19.30;71.07
72570;BME280;60594;50.204;8.844;2022-08-02T00:54:34;100191.84;;;19.31;71.31
72570;BME280;60594;50.204;8.844;2022-08-02T00:57:00;100180.34;;;19.29;71.29
72570;BME280;60594;50.204;8.844;2022-08-02T00:59:27;100180.03;;;19.24;71.60
72570;BME280;60594;50.204;8.844;2022-08-02T01:01:53;100188.13;;;19.24;71.63
72570;BME280;60594;50.204;8.844;2022-08-02T01:04:20;100181.56;;;19.26;71.41
72570;BME280;60594;50.204;8.844;2022-08-02T01:06:47;100187.28;;;19.23;71.67
72570;BME280;60594;50.204;8.844;2022-08-02T01:09:13;100188.00;;;19.17;72.33
72570;BME280;60594;50.204;8.844;2022-08-02T01:11:39;100189.34;;;19.21;72.23
72570;BME280;60594;50.204;8.844;2022-08-02T01:14:09;100192.56;;;19.17;72.31
72570;BME280;60594;50.204;8.844;2022-08-02T01:16:47;100190.75;;;19.09;72.19
72570;BME280;60594;50.204;8.844;2022-08-02T01:19:39;100205.19;;;18.94;72.92
72570;BME280;60594;50.204;8.844;2022-08-02T01:22:37;100200.41;;;18.57;73.75
72570;BME280;60594;50.204;8.844;2022-08-02T01:28:01;100200.56;;;18.72;73.49
72570;BME280;60594;50.204;8.844;2022-08-02T01:30:30;100198.03;;;18.70;73.59
72570;BME280;60594;50.204;8.844;2022-08-02T01:33:02;100190.44;;;18.66;74.11
72570;BME280;60594;50.204;8.844;2022-08-02T01:35:37;100192.78;;;18.69;73.66
72570;BME280;60594;50.204;8.844;2022-08-02T01:38:17;100191.13;;;18.68;74.05
72570;BME280;60594;50.204;8.844;2022-08-02T01:40:48;100190.13;;;18.61;74.29
72570;BME280;60594;50.204;8.844;2022-08-02T01:43:16;100186.63;;;18.52;74.37
72570;BME280;60594;50.204;8.844;2022-08-02T01:45:44;100181.75;;;18.40;74.56
72570;BME280;60594;50.204;8.844;2022-08-02T01:48:13;100181.75;;;18.40;74.52
72570;BME280;60594;50.204;8.844;2022-08-02T01:50:42;100178.72;;;18.43;74.88
72570;BME280;60594;50.204;8.844;2022-08-02T01:53:09;100184.59;;;18.46;75.06
72570;BME280;60594;50.204;8.844;2022-08-02T01:55:43;100174.50;;;18.40;75.01
72570;BME280;60594;50.204;8.844;2022-08-02T01:58:13;100182.25;;;18.35;74.70
72570;BME280;60594;50.204;8.844;2022-08-02T02:00:42;100183.44;;;18.33;74.88
72570;BME280;60594;50.204;8.844;2022-08-02T02:03:13;100181.75;;;18.32;75.15
72570;BME280;60594;50.204;8.844;2022-08-02T02:05:40;100177.38;;;18.31;75.07
72570;BME280;60594;50.204;8.844;2022-08-02T02:08:07;100170.97;;;18.24;75.05
72570;BME280;60594;50.204;8.844;2022-08-02T02:10:35;100183.78;;;18.22;75.55
72570;BME280;60594;50.204;8.844;2022-08-02T02:13:06;100182.50;;;18.02;76.04
72570;BME280;60594;50.204;8.844;2022-08-02T02:15:39;100182.31;;;18.03;76.34
72570;BME280;60594;50.204;8.844;2022-08-02T02:18:06;100177.06;;;18.18;75.97
72570;BME280;60594;50.204;8.844;2022-08-02T02:20:34;100180.09;;;18.15;76.06
72570;BME280;60594;50.204;8.844;2022-08-02T02:23:00;100183.31;;;18.18;75.59
72570;BME280;60594;50.204;8.844;2022-08-02T02:25:27;100183.66;;;18.07;75.72
72570;BME280;60594;50.204;8.844;2022-08-02T02:28:02;100188.38;;;18.13;75.87
72570;BME280;60594;50.204;8.844;2022-08-02T02:30:30;100177.75;;;18.20;75.83
72570;BME280;60594;50.204;8.844;2022-08-02T02:33:01;100177.59;;;18.13;76.16
72570;BME280;60594;50.204;8.844;2022-08-02T02:35:31;100177.75;;;18.20;75.71
72570;BME280;60594;50.204;8.844;2022-08-02T02:37:58;100185.81;;;18.28;75.11
72570;BME280;60594;50.204;8.844;2022-08-02T02:40:27;100191.22;;;18.28;75.04
72570;BME280;60594;50.204;8.844;2022-08-02T02:42:55;100192.25;;;18.19;75.47
72570;BME280;60594;50.204;8.844;2022-08-02T02:45:24;100191.06;;;18.05;75.85
72570;BME280;60594;50.204;8.844;2022-08-02T02:47:53;100189.53;;;18.11;75.27
72570;BME280;60594;50.204;8.844;2022-08-02T02:50:21;100186.53;;;18.06;75.84
72570;BME280;60594;50.204;8.844;2022-08-02T02:52:48;100184.16;;;18.03;76.13
72570;BME280;60594;50.204;8.844;2022-08-02T02:55:16;100196.31;;;17.99;75.81
72570;BME280;60594;50.204;8.844;2022-08-02T02:57:43;100198.00;;;17.92;76.67
72570;BME280;60594;50.204;8.844;2022-08-02T03:00:11;100201.19;;;18.03;75.79
72570;BME280;60594;50.204;8.844;2022-08-02T03:02:40;100201.88;;;17.97;75.98
72570;BME280;60594;50.204;8.844;2022-08-02T03:05:08;100191.78;;;17.99;76.13
72570;BME280;60594;50.204;8.844;2022-08-02T03:07:35;100201.19;;;18.03;76.00
72570;BME280;60594;50.204;8.844;2022-08-02T03:10:04;100189.22;;;18.06;75.98
72570;BME280;60594;50.204;8.844;2022-08-02T03:12:31;100198.69;;;18.02;76.01
72570;BME280;60594;50.204;8.844;2022-08-02T03:15:00;100190.25;;;18.05;75.61
72570;BME280;60594;50.204;8.844;2022-08-02T03:17:40;100186.34;;;18.07;75.92
72570;BME280;60594;50.204;8.844;2022-08-02T03:20:14;100189.06;;;18.07;75.61
72570;BME280;60594;50.204;8.844;2022-08-02T03:22:42;100182.47;;;18.10;75.55
72570;BME280;60594;50.204;8.844;2022-08-02T03:25:10;100176.75;;;18.05;76.16
72570;BME280;60594;50.204;8.844;2022-08-02T03:27:37;100182.16;;;18.05;76.25
72570;BME280;60594;50.204;8.844;2022-08-02T03:30:05;100178.59;;;18.12;75.89
72570;BME280;60594;50.204;8.844;2022-08-02T03:32:35;100186.03;;;18.02;76.52
72570;BME280;60594;50.204;8.844;2022-08-02T03:35:04;100181.63;;;18.17;75.41
72570;BME280;60594;50.204;8.844;2022-08-02T03:37:32;100190.38;;;18.19;75.10
72570;BME280;60594;50.204;8.844;2022-08-02T03:39:59;100197.13;;;18.15;75.38
72570;BME280;60594;50.204;8.844;2022-08-02T03:42:27;100198.50;;;18.03;75.76
72570;BME280;60594;50.204;8.844;2022-08-02T03:44:54;100183.34;;;18.02;75.68
72570;BME280;60594;50.204;8.844;2022-08-02T03:47:22;100183.84;;;17.98;75.90
72570;BME280;60594;50.204;8.844;2022-08-02T03:49:49;100185.03;;;17.95;76.03
72570;BME280;60594;50.204;8.844;2022-08-02T03:52:16;100175.59;;;17.91;76.17
72570;BME280;60594;50.204;8.844;2022-08-02T03:54:43;100171.38;;;17.89;75.94
72570;BME280;60594;50.204;8.844;2022-08-02T03:57:09;100173.22;;;17.96;75.80
72570;BME280;60594;50.204;8.844;2022-08-02T03:59:40;100169.84;;;18.02;75.77
72570;BME280;60594;50.204;8.844;2022-08-02T04:02:08;100178.63;;;17.88;76.54
72570;BME280;60594;50.204;8.844;2022-08-02T04:04:35;100176.09;;;17.95;76.31
72570;BME280;60594;50.204;8.844;2022-08-02T04:07:02;100172.53;;;17.94;76.63
72570;BME280;60594;50.204;8.844;2022-08-02T04:09:28;100182.66;;;17.92;76.32
72570;BME280;60594;50.204;8.844;2022-08-02T04:11:55;100174.41;;;18.02;75.60
72570;BME280;60594;50.204;8.844;2022-08-02T04:14:22;100184.00;;;17.72;76.96
72570;BME280;60594;50.204;8.844;2022-08-02T04:16:54;100193.31;;;17.86;75.88
72570;BME280;60594;50.204;8.844;2022-08-02T04:19:28;100181.84;;;17.84;76.41
72570;BME280;60594;50.204;8.844;2022-08-02T04:21:58;100184.34;;;17.53;77.28
72570;BME280;60594;50.204;8.844;2022-08-02T04:24:28;100189.53;;;17.31;78.71
72570;BME280;60594;50.204;8.844;2022-08-02T04:26:58;100189.84;;;17.28;78.35
72570;BME280;60594;50.204;8.844;2022-08-02T04:29:26;100181.09;;;17.26;78.28
72570;BME280;60594;50.204;8.844;2022-08-02T04:31:53;100186.31;;;17.27;78.74
72570;BME280;60594;50.204;8.844;2022-08-02T04:34:20;100183.38;;;16.97;79.07
72570;BME280;60594;50.204;8.844;2022-08-02T04:36:46;100185.75;;;17.00;78.81
72570;BME280;60594;50.204;8.844;2022-08-02T04:39:13;100190.50;;;17.14;78.76
72570;BME280;60594;50.204;8.844;2022-08-02T04:41:43;100190.94;;;16.93;79.66
72570;BME280;60594;50.204;8.844;2022-08-02T04:44:12;100198.13;;;16.84;79.60
72570;BME280;60594;50.204;8.844;2022-08-02T04:46:39;100204.25;;;17.03;78.86
72570;BME280;60594;50.204;8.844;2022-08-02T04:49:06;100204.97;;;17.05;77.75
72570;BME280;60594;50.204;8.844;2022-08-02T04:51:34;100209.59;;;16.87;78.50
72570;BME280;60594;50.204;8.844;2022-08-02T04:54:02;100208.13;;;16.58;79.40
72570;BME280;60594;50.204;8.844;2022-08-02T04:56:29;100213.84;;;16.63;81.01
72570;BME280;60594;50.204;8.844;2022-08-02T04:58:55;100230.75;;;16.81;81.63
72570;BME280;60594;50.204;8.844;2022-08-02T05:01:22;100217.53;;;16.88;81.36
72570;BME280;60594;50.204;8.844;2022-08-02T05:03:48;100233.25;;;17.09;80.45
72570;BME280;60594;50.204;8.844;2022-08-02T05:06:15;100245.41;;;17.21;80.21
72570;BME280;60594;50.204;8.844;2022-08-02T05:08:41;100248.56;;;17.16;80.96
72570;BME280;60594;50.204;8.844;2022-08-02T05:11:08;100251.97;;;17.26;80.31
72570;BME280;60594;50.204;8.844;2022-08-02T05:13:34;100227.09;;;17.32;80.24
72570;BME280;60594;50.204;8.844;2022-08-02T05:16:00;100222.84;;;17.30;80.05
72570;BME280;60594;50.204;8.844;2022-08-02T05:18:28;100230.47;;;17.42;79.51
72570;BME280;60594;50.204;8.844;2022-08-02T05:20:54;100227.91;;;17.33;78.98
72570;BME280;60594;50.204;8.844;2022-08-02T05:23:21;100225.22;;;17.33;78.26
72570;BME280;60594;50.204;8.844;2022-08-02T05:25:47;100229.72;;;17.24;79.12
72570;BME280;60594;50.204;8.844;2022-08-02T05:28:13;100237.19;;;17.38;78.08
72570;BME280;60594;50.204;8.844;2022-08-02T05:30:40;100222.63;;;16.99;79.74
72570;BME280;60594;50.204;8.844;2022-08-02T05:33:07;100230.88;;;17.06;79.96
72570;BME280;60594;50.204;8.844;2022-08-02T05:35:33;100235.34;;;16.89;80.80
72570;BME280;60594;50.204;8.844;2022-08-02T05:38:00;100234.63;;;16.79;81.65
72570;BME280;60594;50.204;8.844;2022-08-02T05:40:26;100239.09;;;17.04;80.91
72570;BME280;60594;50.204;8.844;2022-08-02T05:42:54;100239.16;;;17.20;80.64
72570;BME280;60594;50.204;8.844;2022-08-02T05:45:21;100246.09;;;17.31;80.52
72570;BME280;60594;50.204;8.844;2022-08-02T05:47:48;100238.34;;;17.28;80.43
72570;BME280;60594;50.204;8.844;2022-08-02T05:50:14;100245.47;;;17.45;80.23
72570;BME280;60594;50.204;8.844;2022-08-02T05:52:49;100239.69;;;17.24;81.17
72570;BME280;60594;50.204;8.844;2022-08-02T05:55:26;100236.09;;;17.07;81.58
72570;BME280;60594;50.204;8.844;2022-08-02T06:00:54;100244.06;;;17.25;82.68
72570;BME280;60594;50.204;8.844;2022-08-02T06:03:26;100241.25;;;17.42;81.44
72570;BME280;60594;50.204;8.844;2022-08-02T06:06:04;100247.88;;;17.64;79.89
72570;BME280;60594;50.204;8.844;2022-08-02T06:08:36;100263.91;;;17.81;79.63
72570;BME280;60594;50.204;8.844;2022-08-02T06:11:04;100263.06;;;17.89;79.58
72570;BME280;60594;50.204;8.844;2022-08-02T06:13:32;100267.28;;;17.91;79.56
72570;BME280;60594;50.204;8.844;2022-08-02T06:15:59;100254.97;;;17.81;78.47
72570;BME280;60594;50.204;8.844;2022-08-02T06:18:27;100253.28;;;18.04;78.43
72570;BME280;60594;50.204;8.844;2022-08-02T06:21:00;100258.84;;;17.86;78.34
72570;BME280;60594;50.204;8.844;2022-08-02T06:23:27;100250.56;;;18.04;78.35
72570;BME280;60594;50.204;8.844;2022-08-02T06:25:58;100262.38;;;17.95;78.35
72570;BME280;60594;50.204;8.844;2022-08-02T06:28:25;100268.78;;;18.18;78.92
72570;BME280;60594;50.204;8.844;2022-08-02T06:30:53;100266.44;;;18.31;78.44
72570;BME280;60594;50.204;8.844;2022-08-02T06:33:20;100261.53;;;18.50;77.02
72570;BME280;60594;50.204;8.844;2022-08-02T06:38:32;100271.06;;;18.77;76.86
72570;BME280;60594;50.204;8.844;2022-08-02T06:41:05;100266.84;;;18.82;76.36
72570;BME280;60594;50.204;8.844;2022-08-02T06:44:00;100267.19;;;18.79;75.75
72570;BME280;60594;50.204;8.844;2022-08-02T06:46:28;100261.56;;;18.97;75.02
72570;BME280;60594;50.204;8.844;2022-08-02T06:48:54;100250.75;;;18.97;75.44
72570;BME280;60594;50.204;8.844;2022-08-02T06:51:20;100259.53;;;18.99;75.34
72570;BME280;60594;50.204;8.844;2022-08-02T06:53:47;100265.78;;;18.99;75.57
72570;BME280;60594;50.204;8.844;2022-08-02T06:56:14;100266.03;;;19.20;74.60
72570;BME280;60594;50.204;8.844;2022-08-02T06:58:40;100261.63;;;19.19;76.03
72570;BME280;60594;50.204;8.844;2022-08-02T07:01:07;100263.00;;;19.15;75.33
72570;BME280;60594;50.204;8.844;2022-08-02T07:03:35;100266.31;;;19.33;75.19
72570;BME280;60594;50.204;8.844;2022-08-02T07:06:03;100257.63;;;19.46;75.08
72570;BME280;60594;50.204;8.844;2022-08-02T07:08:30;100262.19;;;19.45;74.72
72570;BME280;60594;50.204;8.844;2022-08-02T07:10:58;100255.66;;;19.62;73.35
72570;BME280;60594;50.204;8.844;2022-08-02T07:13:27;100263.19;;;19.75;72.53
72570;BME280;60594;50.204;8.844;2022-08-02T07:15:54;100255.38;;;19.80;72.41
72570;BME280;60594;50.204;8.844;2022-08-02T07:18:22;100261.03;;;19.93;72.52
72570;BME280;60594;50.204;8.844;2022-08-02T07:20:48;100252.41;;;19.89;72.02
72570;BME280;60594;50.204;8.844;2022-08-02T07:23:15;100257.03;;;20.03;71.37
72570;BME280;60594;50.204;8.844;2022-08-02T07:25:41;100252.75;;;20.09;71.69
72570;BME280;60594;50.204;8.844;2022-08-02T07:28:09;100246.03;;;20.28;70.84
72570;BME280;60594;50.204;8.844;2022-08-02T07:30:36;100237.53;;;20.31;68.87
72570;BME280;60594;50.204;8.844;2022-08-02T07:33:02;100251.22;;;20.66;67.10
72570;BME280;60594;50.204;8.844;2022-08-02T07:35:29;100231.88;;;20.69;67.95
72570;BME280;60594;50.204;8.844;2022-08-02T07:37:55;100239.47;;;20.88;67.50
72570;BME280;60594;50.204;8.844;2022-08-02T07:40:23;100244.22;;;21.01;67.83
72570;BME280;60594;50.204;8.844;2022-08-02T07:42:52;100241.44;;;21.09;65.19
72570;BME280;60594;50.204;8.844;2022-08-02T07:45:21;100242.91;;;21.11;64.83
72570;BME280;60594;50.204;8.844;2022-08-02T07:47:48;100237.19;;;21.21;64.53
72570;BME280;60594;50.204;8.844;2022-08-02T07:50:16;100229.69;;;21.23;65.56
72570;BME280;60594;50.204;8.844;2022-08-02T07:52:44;100227.47;;;21.12;65.33
72570;BME280;60594;50.204;8.844;2022-08-02T07:55:11;100237.47;;;21.26;64.14
72570;BME280;60594;50.204;8.844;2022-08-02T07:57:39;100241.66;;;21.28;62.07
72570;BME280;60594;50.204;8.844;2022-08-02T08:00:07;100245.75;;;21.39;61.86
72570;BME280;60594;50.204;8.844;2022-08-02T08:02:40;100238.63;;;21.52;58.78
72570;BME280;60594;50.204;8.844;2022-08-02T08:05:06;100233.53;;;21.64;58.85
72570;BME280;60594;50.204;8.844;2022-08-02T08:07:34;100230.41;;;21.67;58.25
72570;BME280;60594;50.204;8.844;2022-08-02T08:10:00;100232.97;;;21.89;54.38
72570;BME280;60594;50.204;8.844;2022-08-02T08:12:27;100229.16;;;22.05;55.68
72570;BME280;60594;50.204;8.844;2022-08-02T08:14:53;100221.91;;;22.12;50.84
72570;BME280;60594;50.204;8.844;2022-08-02T08:17:19;100228.22;;;22.19;52.29
72570;BME280;60594;50.204;8.844;2022-08-02T08:19:46;100217.03;;;22.28;50.95
72570;BME280;60594;50.204;8.844;2022-08-02T08:22:13;100222.69;;;22.33;50.17
72570;BME280;60594;50.204;8.844;2022-08-02T08:24:39;100225.63;;;22.32;51.87
72570;BME280;60594;50.204;8.844;2022-08-02T08:27:05;100220.50;;;22.43;55.36
72570;BME280;60594;50.204;8.844;2022-08-02T08:29:32;100222.50;;;22.56;54.71
72570;BME280;60594;50.204;8.844;2022-08-02T08:31:58;100222.03;;;22.52;53.25
72570;BME280;60594;50.204;8.844;2022-08-02T08:34:24;100224.06;;;22.78;52.01
72570;BME280;60594;50.204;8.844;2022-08-02T08:36:52;100227.63;;;22.78;50.90
72570;BME280;60594;50.204;8.844;2022-08-02T08:39:18;100232.22;;;22.78;48.96
72570;BME280;60594;50.204;8.844;2022-08-02T08:41:46;100236.44;;;22.80;49.65
72570;BME280;60594;50.204;8.844;2022-08-02T08:44:12;100233.19;;;23.04;50.60
72570;BME280;60594;50.204;8.844;2022-08-02T08:46:41;100230.34;;;23.19;50.58
72570;BME280;60594;50.204;8.844;2022-08-02T08:49:14;100227.09;;;23.30;49.09
72570;BME280;60594;50.204;8.844;2022-08-02T08:51:43;100224.44;;;23.56;50.92
72570;BME280;60594;50.204;8.844;2022-08-02T08:54:14;100236.41;;;23.68;48.10
72570;BME280;60594;50.204;8.844;2022-08-02T08:56:42;100236.41;;;23.75;48.99
72570;BME280;60594;50.204;8.844;2022-08-02T08:59:08;100227.22;;;23.89;48.51
72570;BME280;60594;50.204;8.844;2022-08-02T09:01:35;100221.19;;;24.06;48.76
72570;BME280;60594;50.204;8.844;2022-08-02T09:04:01;100228.94;;;23.96;48.28
72570;BME280;60594;50.204;8.844;2022-08-02T09:06:28;100227.03;;;23.97;47.50
72570;BME280;60594;50.204;8.844;2022-08-02T09:08:54;100225.91;;;23.72;46.93
72570;BME280;60594;50.204;8.844;2022-08-02T09:11:24;100217.81;;;23.98;46.18
72570;BME280;60594;50.204;8.844;2022-08-02T09:13:58;100220.34;;;24.32;46.59
72570;BME280;60594;50.204;8.844;2022-08-02T09:16:35;100217.19;;;24.61;46.46
72570;BME280;60594;50.204;8.844;2022-08-02T09:19:17;100217.94;;;25.00;43.35
72570;BME280;60594;50.204;8.844;2022-08-02T09:21:44;100216.59;;;25.16;44.44
72570;BME280;60594;50.204;8.844;2022-08-02T09:24:19;100217.13;;;25.44;44.20
72570;BME280;60594;50.204;8.844;2022-08-02T09:26:46;100219.06;;;25.74;42.04
72570;BME280;60594;50.204;8.844;2022-08-02T09:29:13;100221.91;;;26.17;39.85
72570;BME280;60594;50.204;8.844;2022-08-02T09:31:41;100224.09;;;26.09;39.68
72570;BME280;60594;50.204;8.844;2022-08-02T09:34:07;100215.34;;;25.93;39.08
72570;BME280;60594;50.204;8.844;2022-08-02T09:36:41;100207.63;;;26.15;39.02
72570;BME280;60594;50.204;8.844;2022-08-02T09:39:10;100206.59;;;26.16;37.13
72570;BME280;60594;50.204;8.844;2022-08-02T09:41:39;100219.78;;;26.19;37.74
72570;BME280;60594;50.204;8.844;2022-08-02T09:44:09;100216.16;;;26.25;36.11
72570;BME280;60594;50.204;8.844;2022-08-02T09:46:40;100207.94;;;26.50;38.37
72570;BME280;60594;50.204;8.844;2022-08-02T09:49:16;100200.81;;;27.09;39.43
72570;BME280;60594;50.204;8.844;2022-08-02T09:54:28;100195.63;;;27.01;37.44
72570;BME280;60594;50.204;8.844;2022-08-02T09:56:57;100216.31;;;26.97;36.35
72570;BME280;60594;50.204;8.844;2022-08-02T09:59:24;100216.00;;;26.87;36.05
72570;BME280;60594;50.204;8.844;2022-08-02T10:01:53;100205.97;;;27.17;36.68
72570;BME280;60594;50.204;8.844;2022-08-02T10:04:21;100199.84;;;27.15;36.40
72570;BME280;60594;50.204;8.844;2022-08-02T10:06:49;100203.81;;;27.37;37.77
72570;BME280;60594;50.204;8.844;2022-08-02T10:09:16;100199.88;;;27.63;34.12
72570;BME280;60594;50.204;8.844;2022-08-02T10:11:42;100204.78;;;27.72;35.26
72570;BME280;60594;50.204;8.844;2022-08-02T10:14:10;100204.09;;;27.77;34.68
72570;BME280;60594;50.204;8.844;2022-08-02T10:16:38;100195.66;;;27.78;34.21
72570;BME280;60594;50.204;8.844;2022-08-02T10:19:05;100185.13;;;27.93;35.32
72570;BME280;60594;50.204;8.844;2022-08-02T10:24:19;100176.16;;;27.98;33.95
72570;BME280;60594;50.204;8.844;2022-08-02T10:26:47;100175.72;;;28.24;34.04
72570;BME280;60594;50.204;8.844;2022-08-02T10:29:16;100186.38;;;28.43;33.51
72570;BME280;60594;50.204;8.844;2022-08-02T10:32:14;100189.47;;;28.58;34.69
72570;BME280;60594;50.204;8.844;2022-08-02T10:34:52;100185.56;;;28.43;32.41
72570;BME280;60594;50.204;8.844;2022-08-02T10:37:21;100171.19;;;28.41;33.53
72570;BME280;60594;50.204;8.844;2022-08-02T10:39:55;100174.34;;;28.44;33.91
72570;BME280;60594;50.204;8.844;2022-08-02T10:45:09;100179.53;;;28.92;32.78
72570;BME280;60594;50.204;8.844;2022-08-02T10:47:35;100170.63;;;28.27;32.91
72570;BME280;60594;50.204;8.844;2022-08-02T10:50:02;100175.59;;;28.07;33.71
72570;BME280;60594;50.204;8.844;2022-08-02T10:52:30;100167.63;;;28.29;34.25
72570;BME280;60594;50.204;8.844;2022-08-02T10:55:10;100159.88;;;28.26;33.66
72570;BME280;60594;50.204;8.844;2022-08-02T10:57:37;100161.78;;;28.14;33.08
72570;BME280;60594;50.204;8.844;2022-08-02T11:02:50;100164.06;;;28.40;33.18
72570;BME280;60594;50.204;8.844;2022-08-02T11:07:55;100167.75;;;28.80;33.37
72570;BME280;60594;50.204;8.844;2022-08-02T11:13:07;100161.00;;;29.11;32.71
72570;BME280;60594;50.204;8.844;2022-08-02T11:18:19;100150.53;;;29.64;30.70
72570;BME280;60594;50.204;8.844;2022-08-02T11:20:46;100149.72;;;28.84;31.55
72570;BME280;60594;50.204;8.844;2022-08-02T11:23:38;100158.09;;;28.66;33.19
72570;BME280;60594;50.204;8.844;2022-08-02T11:29:02;100145.97;;;28.90;32.73
72570;BME280;60594;50.204;8.844;2022-08-02T11:31:37;100141.66;;;28.66;33.82
72570;BME280;60594;50.204;8.844;2022-08-02T11:34:04;100152.50;;;29.12;32.52
72570;BME280;60594;50.204;8.844;2022-08-02T11:36:31;100149.44;;;29.37;32.93
72570;BME280;60594;50.204;8.844;2022-08-02T11:39:11;100133.59;;;29.27;32.68
72570;BME280;60594;50.204;8.844;2022-08-02T11:41:38;100133.94;;;29.31;32.41
72570;BME280;60594;50.204;8.844;2022-08-02T11:44:05;100138.81;;;29.40;32.50
72570;BME280;60594;50.204;8.844;2022-08-02T11:46:31;100133.78;;;29.37;32.55
72570;BME280;60594;50.204;8.844;2022-08-02T11:49:10;100132.06;;;29.48;31.05
72570;BME280;60594;50.204;8.844;2022-08-02T11:51:37;100133.03;;;29.70;33.48
72570;BME280;60594;50.204;8.844;2022-08-02T11:54:04;100128.88;;;29.67;32.43
72570;BME280;60594;50.204;8.844;2022-08-02T11:56:31;100121.97;;;29.81;32.18
72570;BME280;60594;50.204;8.844;2022-08-02T11:59:08;100125.34;;;30.00;31.94
72570;BME280;60594;50.204;8.844;2022-08-02T12:01:37;100122.66;;;30.38;31.43
72570;BME280;60594;50.204;8.844;2022-08-02T12:04:05;100115.28;;;30.43;29.67
72570;BME280;60594;50.204;8.844;2022-08-02T12:06:34;100119.06;;;30.21;30.81
72570;BME280;60594;50.204;8.844;2022-08-02T12:09:06;100111.66;;;30.21;29.92
72570;BME280;60594;50.204;8.844;2022-08-02T12:11:33;100110.75;;;30.16;29.96
72570;BME280;60594;50.204;8.844;2022-08-02T12:13:59;100116.72;;;30.29;29.25
72570;BME280;60594;50.204;8.844;2022-08-02T12:16:33;100109.69;;;29.56;29.99
72570;BME280;60594;50.204;8.844;2022-08-02T12:19:18;100112.34;;;29.51;30.69
72570;BME280;60594;50.204;8.844;2022-08-02T12:21:46;100112.00;;;29.47;30.76
72570;BME280;60594;50.204;8.844;2022-08-02T12:24:13;100109.91;;;29.38;30.38
72570;BME280;60594;50.204;8.844;2022-08-02T12:26:52;100114.28;;;29.50;30.36
72570;BME280;60594;50.204;8.844;2022-08-02T12:29:29;100104.09;;;29.51;30.72
72570;BME280;60594;50.204;8.844;2022-08-02T12:31:56;100111.22;;;29.63;30.43
72570;BME280;60594;50.204;8.844;2022-08-02T12:34:23;100111.66;;;29.72;29.89
72570;BME280;60594;50.204;8.844;2022-08-02T12:37:04;100106.03;;;29.50;30.14
72570;BME280;60594;50.204;8.844;2022-08-02T12:39:42;100101.59;;;29.49;29.93
72570;BME280;60594;50.204;8.844;2022-08-02T12:42:11;100107.25;;;29.71;29.86
72570;BME280;60594;50.204;8.844;2022-08-02T12:44:53;100096.94;;;29.94;28.41
72570;BME280;60594;50.204;8.844;2022-08-02T12:47:20;100100.41;;;30.23;29.19
72570;BME280;60594;50.204;8.844;2022-08-02T12:52:32;100086.41;;;30.24;29.00
72570;BME280;60594;50.204;8.844;2022-08-02T12:54:58;100091.50;;;30.16;27.03
72570;BME280;60594;50.204;8.844;2022-08-02T12:57:25;100086.00;;;30.16;27.29
72570;BME280;60594;50.204;8.844;2022-08-02T12:59:52;100087.25;;;29.75;27.64
72570;BME280;60594;50.204;8.844;2022-08-02T13:02:18;100085.94;;;29.94;28.43
72570;BME280;60594;50.204;8.844;2022-08-02T13:04:45;100078.00;;;29.98;26.44
72570;BME280;60594;50.204;8.844;2022-08-02T13:07:12;100084.25;;;29.60;27.69
72570;BME280;60594;50.204;8.844;2022-08-02T13:09:40;100082.09;;;29.79;27.30
72570;BME280;60594;50.204;8.844;2022-08-02T13:12:07;100078.84;;;29.65;28.07
72570;BME280;60594;50.204;8.844;2022-08-02T13:14:34;100065.16;;;30.03;27.03
72570;BME280;60594;50.204;8.844;2022-08-02T13:17:00;100070.09;;;30.01;27.41
72570;BME280;60594;50.204;8.844;2022-08-02T13:19:27;100076.53;;;29.90;27.24
72570;BME280;60594;50.204;8.844;2022-08-02T13:21:53;100074.69;;;29.96;27.27
72570;BME280;60594;50.204;8.844;2022-08-02T13:24:20;100070.88;;;29.52;26.95
72570;BME280;60594;50.204;8.844;2022-08-02T13:26:46;100069.28;;;29.68;27.48
72570;BME280;60594;50.204;8.844;2022-08-02T13:29:13;100067.69;;;29.72;27.04
72570;BME280;60594;50.204;8.844;2022-08-02T13:31:39;100067.50;;;29.95;26.16